sensor_id;sensor_type;location;lat;lon;timestamp;P1;durP1;ratioP1;P2;durP2;ratioP2
37955;SDS011;23776;51.592;7.180;2023-05-10T00:01:11;20.50;;;11.25;;
37955;SDS011;23776;51.592;7.180;2023-05-10T00:03:36;22.00;;;10.10;;
37955;SDS011;23776;51.592;7.180;2023-05-10T00:06:02;16.23;;;8.73;;
37955;SDS011;23776;51.592;7.180;2023-05-10T00:08:28;22.13;;;9.48;;
37955;SDS011;23776;51.592;7.180;2023-05-10T00:10:53;19.85;;;9.30;;
37955;SDS011;23776;51.592;7.180;2023-05-10T00:13:19;26.90;;;10.55;;
37955;SDS011;23776;51.592;7.180;2023-05-10T00:15:44;23.13;;;10.50;;
37955;SDS011;23776;51.592;7.180;2023-05-10T00:18:10;22.73;;;9.55;;
37955;SDS011;23776;51.592;7.180;2023-05-10T00:20:36;15.20;;;8.57;;
37955;SDS011;23776;51.592;7.180;2023-05-10T00:23:01;16.98;;;8.63;;
37955;SDS011;23776;51.592;7.180;2023-05-10T00:25:27;19.52;;;9.80;;
37955;SDS011;23776;51.592;7.180;2023-05-10T00:27:52;19.58;;;8.38;;
37955;SDS011;23776;51.592;7.180;2023-05-10T00:30:20;17.25;;;8.23;;
37955;SDS011;23776;51.592;7.180;2023-05-10T00:32:45;14.93;;;7.80;;
37955;SDS011;23776;51.592;7.180;2023-05-10T00:35:13;13.43;;;7.07;;
37955;SDS011;23776;51.592;7.180;2023-05-10T00:37:38;12.68;;;6.38;;
37955;SDS011;23776;51.592;7.180;2023-05-10T00:40:04;12.82;;;6.55;;
37955;SDS011;23776;51.592;7.180;2023-05-10T00:42:30;11.95;;;6.40;;
37955;SDS011;23776;51.592;7.180;2023-05-10T00:44:56;8.50;;;5.10;;
37955;SDS011;23776;51.592;7.180;2023-05-10T00:47:22;12.52;;;6.53;;
37955;SDS011;23776;51.592;7.180;2023-05-10T00:49:48;14.95;;;6.50;;
37955;SDS011;23776;51.592;7.180;2023-05-10T00:52:14;18.17;;;6.20;;
37955;SDS011;23776;51.592;7.180;2023-05-10T00:54:40;14.18;;;6.38;;
37955;SDS011;23776;51.592;7.180;2023-05-10T00:57:06;17.52;;;7.72;;
37955;SDS011;23776;51.592;7.180;2023-05-10T00:59:32;17.45;;;7.75;;
37955;SDS011;23776;51.592;7.180;2023-05-10T01:01:58;14.93;;;6.78;;
37955;SDS011;23776;51.592;7.180;2023-05-10T01:04:23;17.00;;;8.10;;
37955;SDS011;23776;51.592;7.180;2023-05-10T01:06:50;20.05;;;7.10;;
37955;SDS011;23776;51.592;7.180;2023-05-10T01:09:17;22.20;;;8.23;;
37955;SDS011;23776;51.592;7.180;2023-05-10T01:11:43;18.42;;;7.38;;
37955;SDS011;23776;51.592;7.180;2023-05-10T01:14:09;15.55;;;7.05;;
37955;SDS011;23776;51.592;7.180;2023-05-10T01:16:36;13.75;;;7.10;;
37955;SDS011;23776;51.592;7.180;2023-05-10T01:19:08;16.35;;;7.32;;
37955;SDS011;23776;51.592;7.180;2023-05-10T01:25:03;15.23;;;7.93;;
37955;SDS011;23776;51.592;7.180;2023-05-10T01:30:35;20.00;;;8.13;;
37955;SDS011;23776;51.592;7.180;2023-05-10T01:33:19;19.35;;;8.38;;
37955;SDS011;23776;51.592;7.180;2023-05-10T01:38:39;15.05;;;6.85;;
37955;SDS011;23776;51.592;7.180;2023-05-10T01:41:18;16.75;;;7.05;;
37955;SDS011;23776;51.592;7.180;2023-05-10T01:46:24;13.55;;;6.57;;
37955;SDS011;23776;51.592;7.180;2023-05-10T01:48:55;12.05;;;5.15;;
37955;SDS011;23776;51.592;7.180;2023-05-10T01:51:26;15.05;;;6.32;;
37955;SDS011;23776;51.592;7.180;2023-05-10T01:54:00;12.30;;;5.78;;
37955;SDS011;23776;51.592;7.180;2023-05-10T01:56:28;13.90;;;5.15;;
37955;SDS011;23776;51.592;7.180;2023-05-10T01:58:55;13.27;;;5.10;;
37955;SDS011;23776;51.592;7.180;2023-05-10T02:01:23;12.93;;;5.70;;
37955;SDS011;23776;51.592;7.180;2023-05-10T02:03:51;11.68;;;5.97;;
37955;SDS011;23776;51.592;7.180;2023-05-10T02:06:18;12.48;;;5.45;;
37955;SDS011;23776;51.592;7.180;2023-05-10T02:08:45;13.98;;;6.35;;
37955;SDS011;23776;51.592;7.180;2023-05-10T02:11:13;11.40;;;5.05;;
37955;SDS011;23776;51.592;7.180;2023-05-10T02:13:39;11.80;;;5.43;;
37955;SDS011;23776;51.592;7.180;2023-05-10T02:16:07;11.07;;;5.97;;
37955;SDS011;23776;51.592;7.180;2023-05-10T02:18:33;14.65;;;6.55;;
37955;SDS011;23776;51.592;7.180;2023-05-10T02:21:01;9.77;;;5.53;;
37955;SDS011;23776;51.592;7.180;2023-05-10T02:23:28;11.98;;;5.60;;
37955;SDS011;23776;51.592;7.180;2023-05-10T02:25:55;12.75;;;5.15;;
37955;SDS011;23776;51.592;7.180;2023-05-10T02:28:23;12.80;;;5.43;;
37955;SDS011;23776;51.592;7.180;2023-05-10T02:30:51;11.25;;;5.40;;
37955;SDS011;23776;51.592;7.180;2023-05-10T02:33:17;10.10;;;4.53;;
37955;SDS011;23776;51.592;7.180;2023-05-10T02:35:45;9.07;;;4.80;;
37955;SDS011;23776;51.592;7.180;2023-05-10T02:38:11;9.80;;;4.70;;
37955;SDS011;23776;51.592;7.180;2023-05-10T02:40:39;9.90;;;4.75;;
37955;SDS011;23776;51.592;7.180;2023-05-10T02:43:07;10.10;;;4.85;;
37955;SDS011;23776;51.592;7.180;2023-05-10T02:45:37;11.00;;;4.82;;
37955;SDS011;23776;51.592;7.180;2023-05-10T02:48:05;11.27;;;4.90;;
37955;SDS011;23776;51.592;7.180;2023-05-10T02:50:31;12.30;;;5.43;;
37955;SDS011;23776;51.592;7.180;2023-05-10T02:53:03;14.80;;;6.32;;
37955;SDS011;23776;51.592;7.180;2023-05-10T02:55:36;13.98;;;5.90;;
37955;SDS011;23776;51.592;7.180;2023-05-10T02:58:05;19.38;;;7.90;;
37955;SDS011;23776;51.592;7.180;2023-05-10T03:00:32;18.77;;;8.02;;
37955;SDS011;23776;51.592;7.180;2023-05-10T03:02:57;15.27;;;7.63;;
37955;SDS011;23776;51.592;7.180;2023-05-10T03:05:23;18.65;;;7.90;;
37955;SDS011;23776;51.592;7.180;2023-05-10T03:07:49;20.23;;;8.93;;
37955;SDS011;23776;51.592;7.180;2023-05-10T03:10:15;22.25;;;9.88;;
37955;SDS011;23776;51.592;7.180;2023-05-10T03:18:15;24.13;;;10.05;;
37955;SDS011;23776;51.592;7.180;2023-05-10T03:20:47;21.27;;;9.13;;
37955;SDS011;23776;51.592;7.180;2023-05-10T03:23:21;22.45;;;9.57;;
37955;SDS011;23776;51.592;7.180;2023-05-10T03:25:57;22.23;;;9.23;;
37955;SDS011;23776;51.592;7.180;2023-05-10T03:28:24;24.25;;;10.13;;
37955;SDS011;23776;51.592;7.180;2023-05-10T03:30:52;27.35;;;12.15;;
37955;SDS011;23776;51.592;7.180;2023-05-10T03:33:19;25.63;;;11.77;;
37955;SDS011;23776;51.592;7.180;2023-05-10T03:35:45;34.30;;;13.73;;
37955;SDS011;23776;51.592;7.180;2023-05-10T03:38:11;29.52;;;12.00;;
37955;SDS011;23776;51.592;7.180;2023-05-10T03:40:40;32.30;;;14.73;;
37955;SDS011;23776;51.592;7.180;2023-05-10T03:43:05;36.13;;;14.93;;
37955;SDS011;23776;51.592;7.180;2023-05-10T03:45:31;36.95;;;15.07;;
37955;SDS011;23776;51.592;7.180;2023-05-10T03:47:57;45.47;;;15.38;;
37955;SDS011;23776;51.592;7.180;2023-05-10T03:50:23;44.53;;;16.30;;
37955;SDS011;23776;51.592;7.180;2023-05-10T03:52:49;39.78;;;15.88;;
37955;SDS011;23776;51.592;7.180;2023-05-10T03:55:15;36.50;;;15.43;;
37955;SDS011;23776;51.592;7.180;2023-05-10T03:57:41;47.33;;;18.13;;
37955;SDS011;23776;51.592;7.180;2023-05-10T04:00:07;43.70;;;17.25;;
37955;SDS011;23776;51.592;7.180;2023-05-10T04:02:33;46.38;;;16.35;;
37955;SDS011;23776;51.592;7.180;2023-05-10T04:04:59;46.30;;;16.67;;
37955;SDS011;23776;51.592;7.180;2023-05-10T04:07:25;39.03;;;15.57;;
37955;SDS011;23776;51.592;7.180;2023-05-10T04:09:50;40.47;;;15.45;;
37955;SDS011;23776;51.592;7.180;2023-05-10T04:12:16;46.92;;;16.30;;
37955;SDS011;23776;51.592;7.180;2023-05-10T04:14:41;57.63;;;19.95;;
37955;SDS011;23776;51.592;7.180;2023-05-10T04:17:07;57.05;;;18.05;;
37955;SDS011;23776;51.592;7.180;2023-05-10T04:19:33;50.08;;;17.88;;
37955;SDS011;23776;51.592;7.180;2023-05-10T04:21:58;48.28;;;17.63;;
37955;SDS011;23776;51.592;7.180;2023-05-10T04:24:24;52.47;;;18.90;;
37955;SDS011;23776;51.592;7.180;2023-05-10T04:26:50;55.65;;;20.13;;
37955;SDS011;23776;51.592;7.180;2023-05-10T04:29:16;60.03;;;21.60;;
37955;SDS011;23776;51.592;7.180;2023-05-10T04:31:41;65.93;;;21.83;;
37955;SDS011;23776;51.592;7.180;2023-05-10T04:34:07;68.70;;;22.92;;
37955;SDS011;23776;51.592;7.180;2023-05-10T04:36:32;66.65;;;23.58;;
37955;SDS011;23776;51.592;7.180;2023-05-10T04:39:00;83.72;;;28.90;;
37955;SDS011;23776;51.592;7.180;2023-05-10T04:41:27;84.28;;;27.20;;
37955;SDS011;23776;51.592;7.180;2023-05-10T04:43:53;95.00;;;30.80;;
37955;SDS011;23776;51.592;7.180;2023-05-10T04:46:19;87.72;;;29.63;;
37955;SDS011;23776;51.592;7.180;2023-05-10T04:48:44;88.82;;;30.50;;
37955;SDS011;23776;51.592;7.180;2023-05-10T04:51:10;89.93;;;31.10;;
37955;SDS011;23776;51.592;7.180;2023-05-10T04:53:36;102.00;;;32.42;;
37955;SDS011;23776;51.592;7.180;2023-05-10T04:56:01;91.53;;;30.67;;
37955;SDS011;23776;51.592;7.180;2023-05-10T04:58:27;104.55;;;32.70;;
37955;SDS011;23776;51.592;7.180;2023-05-10T05:00:52;94.80;;;32.17;;
37955;SDS011;23776;51.592;7.180;2023-05-10T05:03:18;87.45;;;30.27;;
37955;SDS011;23776;51.592;7.180;2023-05-10T05:05:44;102.00;;;31.90;;
37955;SDS011;23776;51.592;7.180;2023-05-10T05:08:10;97.43;;;32.63;;
37955;SDS011;23776;51.592;7.180;2023-05-10T05:10:36;103.40;;;33.72;;
37955;SDS011;23776;51.592;7.180;2023-05-10T05:13:01;92.05;;;31.92;;
37955;SDS011;23776;51.592;7.180;2023-05-10T05:15:27;96.78;;;33.88;;
37955;SDS011;23776;51.592;7.180;2023-05-10T05:17:52;104.57;;;34.38;;
37955;SDS011;23776;51.592;7.180;2023-05-10T05:20:18;103.53;;;33.00;;
37955;SDS011;23776;51.592;7.180;2023-05-10T05:22:44;101.63;;;32.70;;
37955;SDS011;23776;51.592;7.180;2023-05-10T05:25:09;115.55;;;35.45;;
37955;SDS011;23776;51.592;7.180;2023-05-10T05:27:36;102.05;;;33.83;;
37955;SDS011;23776;51.592;7.180;2023-05-10T05:30:02;109.55;;;36.10;;
37955;SDS011;23776;51.592;7.180;2023-05-10T05:32:29;110.88;;;35.65;;
37955;SDS011;23776;51.592;7.180;2023-05-10T05:34:55;106.22;;;34.13;;
37955;SDS011;23776;51.592;7.180;2023-05-10T05:37:21;107.82;;;36.80;;
37955;SDS011;23776;51.592;7.180;2023-05-10T05:39:47;98.15;;;32.00;;
37955;SDS011;23776;51.592;7.180;2023-05-10T05:42:13;110.60;;;37.17;;
37955;SDS011;23776;51.592;7.180;2023-05-10T05:44:39;97.40;;;33.75;;
37955;SDS011;23776;51.592;7.180;2023-05-10T05:47:05;111.85;;;38.00;;
37955;SDS011;23776;51.592;7.180;2023-05-10T05:49:31;115.20;;;35.97;;
37955;SDS011;23776;51.592;7.180;2023-05-10T05:52:00;119.53;;;37.88;;
37955;SDS011;23776;51.592;7.180;2023-05-10T05:54:27;97.93;;;34.85;;
37955;SDS011;23776;51.592;7.180;2023-05-10T05:56:56;116.63;;;38.13;;
37955;SDS011;23776;51.592;7.180;2023-05-10T05:59:22;106.90;;;35.40;;
37955;SDS011;23776;51.592;7.180;2023-05-10T06:01:48;109.85;;;34.38;;
37955;SDS011;23776;51.592;7.180;2023-05-10T06:04:14;101.35;;;34.05;;
37955;SDS011;23776;51.592;7.180;2023-05-10T06:06:40;122.50;;;36.92;;
37955;SDS011;23776;51.592;7.180;2023-05-10T06:09:06;104.05;;;35.58;;
37955;SDS011;23776;51.592;7.180;2023-05-10T06:11:31;121.07;;;38.33;;
37955;SDS011;23776;51.592;7.180;2023-05-10T06:13:57;110.75;;;37.67;;
37955;SDS011;23776;51.592;7.180;2023-05-10T06:16:24;112.80;;;38.45;;
37955;SDS011;23776;51.592;7.180;2023-05-10T06:18:49;109.70;;;37.20;;
37955;SDS011;23776;51.592;7.180;2023-05-10T06:21:16;115.07;;;37.72;;
37955;SDS011;23776;51.592;7.180;2023-05-10T06:23:41;108.13;;;35.50;;
37955;SDS011;23776;51.592;7.180;2023-05-10T06:26:07;98.28;;;34.47;;
37955;SDS011;23776;51.592;7.180;2023-05-10T06:28:33;105.85;;;35.92;;
37955;SDS011;23776;51.592;7.180;2023-05-10T06:30:58;106.00;;;36.60;;
37955;SDS011;23776;51.592;7.180;2023-05-10T06:33:24;94.60;;;34.13;;
37955;SDS011;23776;51.592;7.180;2023-05-10T06:35:50;103.55;;;35.78;;
37955;SDS011;23776;51.592;7.180;2023-05-10T06:38:16;100.97;;;36.67;;
37955;SDS011;23776;51.592;7.180;2023-05-10T06:40:42;100.15;;;35.53;;
37955;SDS011;23776;51.592;7.180;2023-05-10T06:43:08;106.32;;;38.65;;
37955;SDS011;23776;51.592;7.180;2023-05-10T06:45:33;104.07;;;38.38;;
37955;SDS011;23776;51.592;7.180;2023-05-10T06:47:59;101.53;;;35.25;;
37955;SDS011;23776;51.592;7.180;2023-05-10T06:50:25;112.45;;;38.83;;
37955;SDS011;23776;51.592;7.180;2023-05-10T06:52:51;104.03;;;37.13;;
37955;SDS011;23776;51.592;7.180;2023-05-10T06:55:17;116.10;;;40.40;;
37955;SDS011;23776;51.592;7.180;2023-05-10T06:57:42;98.85;;;36.42;;
37955;SDS011;23776;51.592;7.180;2023-05-10T07:00:08;107.78;;;40.47;;
37955;SDS011;23776;51.592;7.180;2023-05-10T07:02:35;101.15;;;36.60;;
37955;SDS011;23776;51.592;7.180;2023-05-10T07:05:00;97.82;;;37.60;;
37955;SDS011;23776;51.592;7.180;2023-05-10T07:07:27;95.25;;;34.78;;
37955;SDS011;23776;51.592;7.180;2023-05-10T07:09:52;96.15;;;35.00;;
37955;SDS011;23776;51.592;7.180;2023-05-10T07:12:18;94.45;;;35.58;;
37955;SDS011;23776;51.592;7.180;2023-05-10T07:14:44;82.35;;;30.92;;
37955;SDS011;23776;51.592;7.180;2023-05-10T07:17:10;87.60;;;34.05;;
37955;SDS011;23776;51.592;7.180;2023-05-10T07:19:36;80.72;;;33.00;;
37955;SDS011;23776;51.592;7.180;2023-05-10T07:22:01;87.90;;;34.78;;
37955;SDS011;23776;51.592;7.180;2023-05-10T07:24:27;83.93;;;32.53;;
37955;SDS011;23776;51.592;7.180;2023-05-10T07:26:53;84.22;;;31.75;;
37955;SDS011;23776;51.592;7.180;2023-05-10T07:29:18;72.43;;;30.17;;
37955;SDS011;23776;51.592;7.180;2023-05-10T07:31:44;81.13;;;31.02;;
37955;SDS011;23776;51.592;7.180;2023-05-10T07:34:09;74.05;;;30.58;;
37955;SDS011;23776;51.592;7.180;2023-05-10T07:36:35;67.07;;;27.77;;
37955;SDS011;23776;51.592;7.180;2023-05-10T07:39:01;70.75;;;29.48;;
37955;SDS011;23776;51.592;7.180;2023-05-10T07:41:27;69.88;;;28.85;;
37955;SDS011;23776;51.592;7.180;2023-05-10T07:43:52;67.95;;;29.10;;
37955;SDS011;23776;51.592;7.180;2023-05-10T07:46:18;77.78;;;32.75;;
37955;SDS011;23776;51.592;7.180;2023-05-10T07:48:45;78.15;;;33.75;;
37955;SDS011;23776;51.592;7.180;2023-05-10T07:51:10;79.90;;;35.30;;
37955;SDS011;23776;51.592;7.180;2023-05-10T07:53:37;71.55;;;30.33;;
37955;SDS011;23776;51.592;7.180;2023-05-10T07:58:48;80.32;;;32.95;;
37955;SDS011;23776;51.592;7.180;2023-05-10T08:01:13;83.03;;;35.42;;
37955;SDS011;23776;51.592;7.180;2023-05-10T08:03:39;84.22;;;34.35;;
37955;SDS011;23776;51.592;7.180;2023-05-10T08:06:05;80.20;;;34.90;;
37955;SDS011;23776;51.592;7.180;2023-05-10T08:08:30;85.97;;;36.38;;
37955;SDS011;23776;51.592;7.180;2023-05-10T08:10:56;87.13;;;34.75;;
37955;SDS011;23776;51.592;7.180;2023-05-10T08:13:22;75.07;;;33.30;;
37955;SDS011;23776;51.592;7.180;2023-05-10T08:15:47;70.97;;;31.15;;
37955;SDS011;23776;51.592;7.180;2023-05-10T08:18:13;72.55;;;31.65;;
37955;SDS011;23776;51.592;7.180;2023-05-10T08:20:38;60.35;;;26.35;;
37955;SDS011;23776;51.592;7.180;2023-05-10T08:23:04;58.78;;;27.80;;
37955;SDS011;23776;51.592;7.180;2023-05-10T08:25:30;59.25;;;27.75;;
37955;SDS011;23776;51.592;7.180;2023-05-10T08:27:56;57.78;;;27.10;;
37955;SDS011;23776;51.592;7.180;2023-05-10T08:30:22;54.13;;;24.20;;
37955;SDS011;23776;51.592;7.180;2023-05-10T08:32:47;52.78;;;24.85;;
37955;SDS011;23776;51.592;7.180;2023-05-10T08:35:13;55.33;;;26.30;;
37955;SDS011;23776;51.592;7.180;2023-05-10T08:37:38;52.22;;;24.92;;
37955;SDS011;23776;51.592;7.180;2023-05-10T08:40:04;60.95;;;28.77;;
37955;SDS011;23776;51.592;7.180;2023-05-10T08:42:30;63.53;;;29.45;;
37955;SDS011;23776;51.592;7.180;2023-05-10T08:45:01;75.63;;;31.17;;
37955;SDS011;23776;51.592;7.180;2023-05-10T08:47:28;78.10;;;31.88;;
37955;SDS011;23776;51.592;7.180;2023-05-10T08:49:54;83.03;;;35.65;;
37955;SDS011;23776;51.592;7.180;2023-05-10T08:52:22;78.07;;;33.90;;
37955;SDS011;23776;51.592;7.180;2023-05-10T08:54:50;78.78;;;34.70;;
37955;SDS011;23776;51.592;7.180;2023-05-10T08:57:16;72.53;;;32.95;;
37955;SDS011;23776;51.592;7.180;2023-05-10T08:59:43;76.40;;;34.15;;
37955;SDS011;23776;51.592;7.180;2023-05-10T09:02:09;77.00;;;33.00;;
37955;SDS011;23776;51.592;7.180;2023-05-10T09:04:36;81.82;;;35.17;;
37955;SDS011;23776;51.592;7.180;2023-05-10T09:07:02;87.68;;;38.10;;
37955;SDS011;23776;51.592;7.180;2023-05-10T09:09:27;79.93;;;35.95;;
37955;SDS011;23776;51.592;7.180;2023-05-10T09:11:54;71.68;;;31.63;;
37955;SDS011;23776;51.592;7.180;2023-05-10T09:14:19;69.25;;;29.98;;
37955;SDS011;23776;51.592;7.180;2023-05-10T09:16:47;59.50;;;28.55;;
37955;SDS011;23776;51.592;7.180;2023-05-10T09:19:12;51.53;;;25.17;;
37955;SDS011;23776;51.592;7.180;2023-05-10T09:21:38;50.17;;;21.58;;
37955;SDS011;23776;51.592;7.180;2023-05-10T09:24:07;52.08;;;23.27;;
37955;SDS011;23776;51.592;7.180;2023-05-10T09:26:34;48.00;;;23.40;;
37955;SDS011;23776;51.592;7.180;2023-05-10T09:29:01;54.42;;;24.05;;
37955;SDS011;23776;51.592;7.180;2023-05-10T09:34:16;53.60;;;27.05;;
37955;SDS011;23776;51.592;7.180;2023-05-10T09:36:59;53.63;;;26.40;;
37955;SDS011;23776;51.592;7.180;2023-05-10T09:39:32;58.72;;;23.65;;
37955;SDS011;23776;51.592;7.180;2023-05-10T09:41:59;47.58;;;22.92;;
37955;SDS011;23776;51.592;7.180;2023-05-10T09:44:28;44.92;;;20.98;;
37955;SDS011;23776;51.592;7.180;2023-05-10T09:46:54;47.10;;;20.35;;
37955;SDS011;23776;51.592;7.180;2023-05-10T09:49:22;45.70;;;19.38;;
37955;SDS011;23776;51.592;7.180;2023-05-10T09:51:59;47.67;;;20.83;;
37955;SDS011;23776;51.592;7.180;2023-05-10T09:54:28;39.72;;;17.80;;
37955;SDS011;23776;51.592;7.180;2023-05-10T09:56:53;35.10;;;16.83;;
37955;SDS011;23776;51.592;7.180;2023-05-10T09:59:19;32.70;;;16.25;;
37955;SDS011;23776;51.592;7.180;2023-05-10T10:01:51;38.33;;;16.67;;
37955;SDS011;23776;51.592;7.180;2023-05-10T10:04:17;35.90;;;18.63;;
37955;SDS011;23776;51.592;7.180;2023-05-10T10:06:45;39.67;;;18.52;;
37955;SDS011;23776;51.592;7.180;2023-05-10T10:09:11;38.55;;;18.38;;
37955;SDS011;23776;51.592;7.180;2023-05-10T10:11:37;46.80;;;20.55;;
37955;SDS011;23776;51.592;7.180;2023-05-10T10:14:03;44.88;;;21.63;;
37955;SDS011;23776;51.592;7.180;2023-05-10T10:16:30;47.25;;;21.00;;
37955;SDS011;23776;51.592;7.180;2023-05-10T10:18:57;55.63;;;23.65;;
37955;SDS011;23776;51.592;7.180;2023-05-10T10:21:22;52.95;;;21.98;;
37955;SDS011;23776;51.592;7.180;2023-05-10T10:23:49;51.90;;;23.13;;
37955;SDS011;23776;51.592;7.180;2023-05-10T10:26:15;50.70;;;22.42;;
37955;SDS011;23776;51.592;7.180;2023-05-10T10:34:07;54.67;;;23.17;;
37955;SDS011;23776;51.592;7.180;2023-05-10T10:36:42;60.20;;;27.30;;
37955;SDS011;23776;51.592;7.180;2023-05-10T10:39:10;66.25;;;28.42;;
37955;SDS011;23776;51.592;7.180;2023-05-10T10:41:40;48.35;;;22.10;;
37955;SDS011;23776;51.592;7.180;2023-05-10T10:49:50;43.70;;;20.48;;
37955;SDS011;23776;51.592;7.180;2023-05-10T10:52:27;41.10;;;18.38;;
37955;SDS011;23776;51.592;7.180;2023-05-10T10:55:20;39.75;;;18.27;;
37955;SDS011;23776;51.592;7.180;2023-05-10T11:03:06;36.83;;;17.25;;
37955;SDS011;23776;51.592;7.180;2023-05-10T11:05:48;37.53;;;16.88;;
37955;SDS011;23776;51.592;7.180;2023-05-10T11:16:10;49.58;;;23.98;;
37955;SDS011;23776;51.592;7.180;2023-05-10T11:18:39;47.83;;;22.63;;
37955;SDS011;23776;51.592;7.180;2023-05-10T11:21:05;55.17;;;25.20;;
37955;SDS011;23776;51.592;7.180;2023-05-10T11:26:33;44.17;;;20.17;;
37955;SDS011;23776;51.592;7.180;2023-05-10T11:28:59;45.88;;;20.50;;
37955;SDS011;23776;51.592;7.180;2023-05-10T11:31:27;43.35;;;20.20;;
37955;SDS011;23776;51.592;7.180;2023-05-10T11:33:53;44.92;;;20.80;;
37955;SDS011;23776;51.592;7.180;2023-05-10T11:36:23;44.08;;;19.05;;
37955;SDS011;23776;51.592;7.180;2023-05-10T11:38:51;31.88;;;14.45;;
37955;SDS011;23776;51.592;7.180;2023-05-10T11:41:17;29.15;;;14.32;;
37955;SDS011;23776;51.592;7.180;2023-05-10T11:43:45;24.92;;;13.27;;
37955;SDS011;23776;51.592;7.180;2023-05-10T11:46:13;32.65;;;14.60;;
37955;SDS011;23776;51.592;7.180;2023-05-10T11:48:39;27.40;;;13.73;;
37955;SDS011;23776;51.592;7.180;2023-05-10T11:51:10;30.20;;;13.73;;
37955;SDS011;23776;51.592;7.180;2023-05-10T11:53:36;24.33;;;12.25;;
37955;SDS011;23776;51.592;7.180;2023-05-10T11:56:06;25.65;;;12.27;;
37955;SDS011;23776;51.592;7.180;2023-05-10T11:58:36;29.37;;;14.00;;
37955;SDS011;23776;51.592;7.180;2023-05-10T12:01:06;23.50;;;11.63;;
37955;SDS011;23776;51.592;7.180;2023-05-10T12:03:32;27.60;;;11.98;;
37955;SDS011;23776;51.592;7.180;2023-05-10T12:05:59;24.20;;;11.93;;
37955;SDS011;23776;51.592;7.180;2023-05-10T12:08:26;21.73;;;11.20;;
37955;SDS011;23776;51.592;7.180;2023-05-10T12:10:53;24.10;;;10.75;;
37955;SDS011;23776;51.592;7.180;2023-05-10T12:13:30;25.55;;;11.75;;
37955;SDS011;23776;51.592;7.180;2023-05-10T12:15:58;24.15;;;12.18;;
37955;SDS011;23776;51.592;7.180;2023-05-10T12:18:25;26.45;;;13.57;;
37955;SDS011;23776;51.592;7.180;2023-05-10T12:20:54;27.77;;;13.52;;
37955;SDS011;23776;51.592;7.180;2023-05-10T12:23:27;21.33;;;11.93;;
37955;SDS011;23776;51.592;7.180;2023-05-10T12:25:53;29.52;;;14.73;;
37955;SDS011;23776;51.592;7.180;2023-05-10T12:28:18;25.27;;;12.85;;
37955;SDS011;23776;51.592;7.180;2023-05-10T12:30:44;22.60;;;12.35;;
37955;SDS011;23776;51.592;7.180;2023-05-10T12:33:11;24.58;;;12.50;;
37955;SDS011;23776;51.592;7.180;2023-05-10T12:35:48;23.42;;;13.13;;
37955;SDS011;23776;51.592;7.180;2023-05-10T12:38:34;27.45;;;14.73;;
37955;SDS011;23776;51.592;7.180;2023-05-10T12:41:03;26.38;;;13.85;;
37955;SDS011;23776;51.592;7.180;2023-05-10T12:43:29;27.67;;;15.15;;
37955;SDS011;23776;51.592;7.180;2023-05-10T12:45:55;26.15;;;14.00;;
37955;SDS011;23776;51.592;7.180;2023-05-10T12:48:21;35.42;;;15.75;;
37955;SDS011;23776;51.592;7.180;2023-05-10T12:50:47;25.95;;;13.70;;
37955;SDS011;23776;51.592;7.180;2023-05-10T12:53:13;35.10;;;15.52;;
37955;SDS011;23776;51.592;7.180;2023-05-10T12:55:43;30.02;;;15.50;;
37955;SDS011;23776;51.592;7.180;2023-05-10T12:58:09;32.45;;;14.82;;
37955;SDS011;23776;51.592;7.180;2023-05-10T13:00:34;30.48;;;14.82;;
37955;SDS011;23776;51.592;7.180;2023-05-10T13:03:02;29.45;;;15.38;;
37955;SDS011;23776;51.592;7.180;2023-05-10T13:05:34;25.98;;;14.07;;
37955;SDS011;23776;51.592;7.180;2023-05-10T13:07:59;30.25;;;14.93;;
37955;SDS011;23776;51.592;7.180;2023-05-10T13:10:25;31.73;;;16.00;;
37955;SDS011;23776;51.592;7.180;2023-05-10T13:12:51;31.30;;;17.00;;
37955;SDS011;23776;51.592;7.180;2023-05-10T13:15:16;32.67;;;19.90;;
37955;SDS011;23776;51.592;7.180;2023-05-10T13:17:42;32.30;;;18.67;;
37955;SDS011;23776;51.592;7.180;2023-05-10T13:20:08;33.95;;;17.83;;
37955;SDS011;23776;51.592;7.180;2023-05-10T13:22:34;32.15;;;17.98;;
37955;SDS011;23776;51.592;7.180;2023-05-10T13:25:00;27.95;;;15.95;;
37955;SDS011;23776;51.592;7.180;2023-05-10T13:27:26;30.98;;;16.70;;
37955;SDS011;23776;51.592;7.180;2023-05-10T13:29:52;31.35;;;16.80;;
37955;SDS011;23776;51.592;7.180;2023-05-10T13:32:18;28.45;;;16.10;;
37955;SDS011;23776;51.592;7.180;2023-05-10T13:34:43;26.23;;;16.23;;
37955;SDS011;23776;51.592;7.180;2023-05-10T13:37:09;20.88;;;13.45;;
37955;SDS011;23776;51.592;7.180;2023-05-10T13:39:35;21.67;;;13.88;;
37955;SDS011;23776;51.592;7.180;2023-05-10T13:42:02;24.42;;;13.80;;
37955;SDS011;23776;51.592;7.180;2023-05-10T13:44:28;22.20;;;10.68;;
37955;SDS011;23776;51.592;7.180;2023-05-10T13:46:54;17.02;;;9.35;;
37955;SDS011;23776;51.592;7.180;2023-05-10T13:49:20;15.25;;;8.45;;
37955;SDS011;23776;51.592;7.180;2023-05-10T13:51:46;14.43;;;8.45;;
37955;SDS011;23776;51.592;7.180;2023-05-10T13:54:12;16.08;;;8.63;;
37955;SDS011;23776;51.592;7.180;2023-05-10T13:56:38;16.70;;;7.65;;
37955;SDS011;23776;51.592;7.180;2023-05-10T13:59:04;11.77;;;6.80;;
37955;SDS011;23776;51.592;7.180;2023-05-10T14:01:30;20.83;;;8.30;;
37955;SDS011;23776;51.592;7.180;2023-05-10T14:03:56;54.42;;;16.08;;
37955;SDS011;23776;51.592;7.180;2023-05-10T14:06:21;19.77;;;8.80;;
37955;SDS011;23776;51.592;7.180;2023-05-10T14:08:47;15.05;;;7.90;;
37955;SDS011;23776;51.592;7.180;2023-05-10T14:11:13;16.05;;;7.22;;
37955;SDS011;23776;51.592;7.180;2023-05-10T14:13:39;12.77;;;6.75;;
37955;SDS011;23776;51.592;7.180;2023-05-10T14:16:04;15.68;;;6.32;;
37955;SDS011;23776;51.592;7.180;2023-05-10T14:18:30;10.70;;;6.38;;
37955;SDS011;23776;51.592;7.180;2023-05-10T14:20:56;19.55;;;7.50;;
37955;SDS011;23776;51.592;7.180;2023-05-10T14:23:22;10.65;;;6.00;;
37955;SDS011;23776;51.592;7.180;2023-05-10T14:25:51;11.52;;;5.78;;
37955;SDS011;23776;51.592;7.180;2023-05-10T14:28:17;9.77;;;5.57;;
37955;SDS011;23776;51.592;7.180;2023-05-10T14:30:43;12.13;;;6.60;;
37955;SDS011;23776;51.592;7.180;2023-05-10T14:33:09;9.32;;;5.43;;
37955;SDS011;23776;51.592;7.180;2023-05-10T14:35:35;11.40;;;4.68;;
37955;SDS011;23776;51.592;7.180;2023-05-10T14:38:01;22.00;;;12.18;;
37955;SDS011;23776;51.592;7.180;2023-05-10T14:40:28;14.32;;;7.20;;
37955;SDS011;23776;51.592;7.180;2023-05-10T14:42:54;10.77;;;6.35;;
37955;SDS011;23776;51.592;7.180;2023-05-10T14:45:20;10.60;;;6.05;;
37955;SDS011;23776;51.592;7.180;2023-05-10T14:47:46;18.13;;;6.68;;
37955;SDS011;23776;51.592;7.180;2023-05-10T14:50:11;12.32;;;6.03;;
37955;SDS011;23776;51.592;7.180;2023-05-10T14:52:37;13.15;;;8.07;;
37955;SDS011;23776;51.592;7.180;2023-05-10T14:55:03;12.50;;;7.45;;
37955;SDS011;23776;51.592;7.180;2023-05-10T14:57:28;12.50;;;7.20;;
37955;SDS011;23776;51.592;7.180;2023-05-10T14:59:54;12.30;;;7.13;;
37955;SDS011;23776;51.592;7.180;2023-05-10T15:02:21;15.15;;;8.70;;
37955;SDS011;23776;51.592;7.180;2023-05-10T15:04:47;18.00;;;9.07;;
37955;SDS011;23776;51.592;7.180;2023-05-10T15:07:12;20.70;;;11.45;;
37955;SDS011;23776;51.592;7.180;2023-05-10T15:09:40;17.95;;;9.27;;
37955;SDS011;23776;51.592;7.180;2023-05-10T15:12:06;20.23;;;11.55;;